createdAt,value
2023-04-12T00:00:43.513Z,5541.00
2023-04-12T00:01:43.521Z,5942.00
2023-04-12T00:02:43.703Z,6199.00
2023-04-12T00:03:43.866Z,6205.00
2023-04-12T00:04:43.868Z,6347.00
2023-04-12T00:05:43.748Z,6328.00
2023-04-12T00:06:43.693Z,6589.00
2023-04-12T00:07:43.785Z,7106.00
2023-04-12T00:08:43.763Z,7253.00
2023-04-12T00:09:43.815Z,7299.00
2023-04-12T00:10:43.839Z,7128.00
2023-04-12T00:11:43.820Z,6962.00
2023-04-12T00:12:43.878Z,6405.00
2023-04-12T00:13:43.910Z,6157.00
2023-04-12T00:14:43.857Z,6027.00
2023-04-12T00:15:43.920Z,5643.00
2023-04-12T00:16:43.878Z,5244.00
2023-04-12T00:17:43.925Z,5066.00
2023-04-12T00:18:43.906Z,4904.00
2023-04-12T00:19:43.948Z,4863.00
2023-04-12T00:20:43.842Z,4792.00
2023-04-12T00:21:43.866Z,4509.00
2023-04-12T00:22:43.857Z,4476.00
2023-04-12T00:23:43.868Z,4555.00
2023-04-12T00:24:43.815Z,4507.00
2023-04-12T00:25:43.799Z,4503.00
2023-04-12T00:26:43.772Z,4486.00
2023-04-12T00:27:43.778Z,4312.00
2023-04-12T00:28:43.815Z,4276.00
2023-04-12T00:29:43.823Z,4247.00
2023-04-12T00:30:43.858Z,4110.00
2023-04-12T00:31:43.801Z,4086.00
2023-04-12T00:32:43.876Z,4163.00
2023-04-12T00:33:43.875Z,4198.00
2023-04-12T00:34:43.806Z,4221.00
2023-04-12T00:35:43.792Z,4159.00
2023-04-12T00:36:43.716Z,4178.00
2023-04-12T00:37:43.766Z,4014.00
2023-04-12T00:38:43.708Z,3990.00
2023-04-12T00:39:43.772Z,4002.00
2023-04-12T00:40:43.703Z,4082.00
2023-04-12T00:41:43.705Z,4264.00
2023-04-12T00:42:43.743Z,4340.00
2023-04-12T00:43:43.742Z,4528.00
2023-04-12T00:44:43.743Z,4641.00
2023-04-12T00:45:43.772Z,4797.00
2023-04-12T00:46:44.560Z,4951.00
2023-04-12T00:47:43.944Z,5007.00
2023-04-12T00:48:43.894Z,4981.00
2023-04-12T00:49:44.597Z,4811.00
2023-04-12T00:50:43.961Z,4937.00
2023-04-12T00:51:44.025Z,4958.00
2023-04-12T00:52:44.108Z,4841.00
2023-04-12T00:53:44.106Z,4730.00
2023-04-12T00:54:44.174Z,4792.00
2023-04-12T00:55:44.155Z,4819.00
2023-04-12T00:56:44.189Z,4800.00
2023-04-12T00:57:44.197Z,4734.00
2023-04-12T00:58:44.216Z,4566.00
2023-04-12T00:59:44.334Z,4447.00
2023-04-12T01:00:44.382Z,4399.00
2023-04-12T01:01:44.399Z,4180.00
2023-04-12T01:02:44.616Z,3767.00
2023-04-12T01:03:44.606Z,3640.00
2023-04-12T01:04:44.480Z,3761.00
2023-04-12T01:05:44.508Z,3809.00
2023-04-12T01:06:44.574Z,3736.00
2023-04-12T01:07:44.645Z,3616.00
2023-04-12T01:08:44.702Z,3569.00
2023-04-12T01:09:44.718Z,3417.00
2023-04-12T01:10:44.756Z,3384.00
2023-04-12T01:11:44.747Z,3504.00
2023-04-12T01:12:44.821Z,4509.00
2023-04-12T01:13:44.835Z,5459.00
2023-04-12T01:14:44.827Z,6197.00
2023-04-12T01:15:44.831Z,6451.00
2023-04-12T01:16:44.957Z,6528.00
2023-04-12T01:17:44.978Z,6653.00
2023-04-12T01:18:44.890Z,6676.00
2023-04-12T01:19:44.986Z,5900.00
2023-04-12T01:20:45.051Z,5567.00
2023-04-12T01:21:45.077Z,5191.00
2023-04-12T01:22:45.018Z,4938.00
2023-04-12T01:23:45.055Z,4658.00
2023-04-12T01:24:45.083Z,4411.00
2023-04-12T01:25:45.240Z,4585.00
2023-04-12T01:26:45.168Z,4753.00
2023-04-12T01:27:45.215Z,4911.00
2023-04-12T01:28:45.233Z,4948.00
2023-04-12T01:29:45.363Z,4774.00
2023-04-12T01:30:45.897Z,4523.00
2023-04-12T01:31:45.381Z,4464.00
2023-04-12T01:32:45.407Z,4345.00
2023-04-12T01:33:45.390Z,4395.00
2023-04-12T01:34:45.424Z,4474.00
2023-04-12T01:35:45.520Z,4476.00
2023-04-12T01:36:45.412Z,4483.00
2023-04-12T01:37:45.507Z,4479.00
2023-04-12T01:38:45.403Z,4518.00
2023-04-12T01:39:45.405Z,4488.00
2023-04-12T01:40:45.409Z,4488.00
2023-04-12T01:41:45.485Z,4532.00
2023-04-12T01:42:45.376Z,4625.00
2023-04-12T01:43:45.445Z,4780.00
2023-04-12T01:44:45.359Z,5012.00
2023-04-12T01:45:45.391Z,4494.00
2023-04-12T01:46:46.129Z,4541.00
2023-04-12T01:47:45.458Z,4630.00
2023-04-12T01:48:45.370Z,4768.00
2023-04-12T01:49:45.392Z,4987.00
2023-04-12T01:50:45.360Z,4889.00
2023-04-12T01:51:45.338Z,4922.00
2023-04-12T01:52:45.399Z,5101.00
2023-04-12T01:53:45.418Z,5103.00
2023-04-12T01:54:45.304Z,5103.00
2023-04-12T01:55:45.262Z,5149.00
2023-04-12T01:56:45.284Z,5270.00
2023-04-12T01:57:45.379Z,5266.00
2023-04-12T01:58:45.462Z,5201.00
2023-04-12T01:59:45.452Z,5219.00
2023-04-12T02:00:45.517Z,5185.00
2023-04-12T02:01:45.518Z,5162.00
2023-04-12T02:02:45.674Z,5235.00
2023-04-12T02:03:45.615Z,5216.00
2023-04-12T02:04:45.490Z,5212.00
2023-04-12T02:05:45.616Z,5072.00
2023-04-12T02:06:45.624Z,5081.00
2023-04-12T02:07:45.701Z,5106.00
2023-04-12T02:08:45.710Z,5060.00
2023-04-12T02:09:45.840Z,4952.00
2023-04-12T02:10:45.866Z,4734.00
2023-04-12T02:11:45.990Z,4661.00
2023-04-12T02:12:46.046Z,4890.00
2023-04-12T02:13:45.973Z,4827.00
2023-04-12T02:14:46.012Z,4808.00
2023-04-12T02:15:46.087Z,4789.00
2023-04-12T02:16:46.279Z,4770.00
2023-04-12T02:17:46.335Z,4832.00
2023-04-12T02:18:46.219Z,5060.00
2023-04-12T02:19:46.364Z,5371.00
2023-04-12T02:20:46.367Z,5724.00
2023-04-12T02:21:46.420Z,5813.00
2023-04-12T02:22:46.378Z,6001.00
2023-04-12T02:23:46.373Z,6102.00
2023-04-12T02:24:46.471Z,6234.00
2023-04-12T02:25:46.450Z,6335.00
2023-04-12T02:26:46.425Z,6388.00
2023-04-12T02:27:46.427Z,6248.00
2023-04-12T02:28:46.401Z,6076.00
2023-04-12T02:29:46.480Z,6244.00
2023-04-12T02:30:46.596Z,6435.00
2023-04-12T02:31:46.557Z,6662.00
2023-04-12T02:32:46.568Z,6863.00
2023-04-12T02:33:46.660Z,6932.00
2023-04-12T02:34:46.659Z,6782.00
2023-04-12T02:35:46.856Z,6608.00
2023-04-12T02:36:46.778Z,6550.00
2023-04-12T02:37:46.863Z,6676.00
2023-04-12T02:38:46.886Z,6680.00
2023-04-12T02:39:46.867Z,6722.00
2023-04-12T02:40:46.822Z,6744.00
2023-04-12T02:41:46.791Z,6743.00
2023-04-12T02:42:46.889Z,6679.00
2023-04-12T02:43:46.876Z,6670.00
2023-04-12T02:44:46.840Z,6773.00
2023-04-12T02:45:46.893Z,6808.00
2023-04-12T02:46:46.846Z,6837.00
2023-04-12T02:47:47.238Z,6979.00
2023-04-12T02:48:46.864Z,7038.00
2023-04-12T02:49:46.916Z,6965.00
2023-04-12T02:50:46.992Z,7058.00
2023-04-12T02:51:47.106Z,7184.00
2023-04-12T02:52:47.152Z,7343.00
2023-04-12T02:53:47.144Z,7370.00
2023-04-12T02:54:47.229Z,7463.00
2023-04-12T02:55:47.188Z,7323.00
2023-04-12T02:56:47.196Z,7270.00
2023-04-12T02:57:47.203Z,7241.00
2023-04-12T02:58:47.216Z,7269.00
2023-04-12T02:59:47.276Z,7328.00
2023-04-12T03:00:47.231Z,7406.00
2023-04-12T03:01:47.335Z,7530.00
2023-04-12T03:02:47.319Z,7769.00
2023-04-12T03:03:47.355Z,8168.00
2023-04-12T03:04:47.255Z,8209.00
2023-04-12T03:05:47.269Z,8415.00
2023-04-12T03:06:47.246Z,8669.00
2023-04-12T03:07:47.299Z,8681.00
2023-04-12T03:08:47.335Z,8357.00
2023-04-12T03:09:47.297Z,8270.00
2023-04-12T03:10:47.362Z,8177.00
2023-04-12T03:11:47.380Z,7987.00
2023-04-12T03:12:47.344Z,7964.00
2023-04-12T03:13:47.308Z,7988.00
2023-04-12T03:14:47.377Z,7934.00
2023-04-12T03:15:47.365Z,7746.00
2023-04-12T03:16:47.373Z,7760.00
2023-04-12T03:17:47.356Z,7554.00
2023-04-12T03:18:47.246Z,7249.00
2023-04-12T03:19:47.324Z,7208.00
2023-04-12T03:20:47.908Z,7236.00
2023-04-12T03:21:47.320Z,7303.00
2023-04-12T03:22:47.248Z,7390.00
2023-04-12T03:23:47.264Z,7519.00
2023-04-12T03:24:47.322Z,7521.00
2023-04-12T03:25:47.228Z,7519.00
2023-04-12T03:26:47.273Z,7423.00
2023-04-12T03:27:47.188Z,7379.00
2023-04-12T03:28:47.221Z,7393.00
2023-04-12T03:29:47.274Z,7344.00
2023-04-12T03:30:47.231Z,7290.00
2023-04-12T03:31:47.203Z,7335.00
2023-04-12T03:32:48.257Z,7290.00
2023-04-12T03:33:47.196Z,7243.00
2023-04-12T03:34:47.211Z,7343.00
2023-04-12T03:35:47.282Z,7368.00
2023-04-12T03:36:47.190Z,7279.00
2023-04-12T03:37:47.087Z,7316.00
2023-04-12T03:38:47.061Z,7316.00
2023-04-12T03:39:47.066Z,7279.00
2023-04-12T03:40:47.074Z,7364.00
2023-04-12T03:41:47.105Z,7408.00
2023-04-12T03:42:47.090Z,7295.00
2023-04-12T03:43:47.129Z,7222.00
2023-04-12T03:44:47.094Z,7076.00
2023-04-12T03:45:47.153Z,7172.00
2023-04-12T03:46:47.074Z,7283.00
2023-04-12T03:47:47.045Z,7335.00
2023-04-12T03:48:47.055Z,7349.00
2023-04-12T03:49:57.560Z,7457.00
2023-04-12T03:50:47.008Z,7326.00
2023-04-12T03:51:47.075Z,7357.00
2023-04-12T03:52:47.048Z,7350.00
2023-04-12T03:53:47.003Z,7445.00
2023-04-12T03:54:46.987Z,7548.00
2023-04-12T03:55:46.994Z,7634.00
2023-04-12T03:56:47.007Z,7570.00
2023-04-12T03:57:46.988Z,7458.00
2023-04-12T03:58:48.019Z,7300.00
2023-04-12T03:59:47.005Z,7401.00
2023-04-12T04:00:46.997Z,7488.00
2023-04-12T04:01:47.075Z,7577.00
2023-04-12T04:02:47.052Z,7577.00
2023-04-12T04:03:47.162Z,7584.00
2023-04-12T04:04:46.964Z,7650.00
2023-04-12T04:05:46.961Z,7646.00
2023-04-12T04:06:46.993Z,7666.00
2023-04-12T04:07:47.025Z,7807.00
2023-04-12T04:08:46.953Z,8005.00
2023-04-12T04:09:46.955Z,8383.00
2023-04-12T04:10:46.878Z,8475.00
2023-04-12T04:11:46.891Z,8456.00
2023-04-12T04:12:46.948Z,8524.00
2023-04-12T04:13:46.900Z,8754.00
2023-04-12T04:14:46.895Z,8865.00
2023-04-12T04:15:46.868Z,8709.00
2023-04-12T04:16:46.992Z,8620.00
2023-04-12T04:17:46.866Z,8587.00
2023-04-12T04:18:46.956Z,8625.00
2023-04-12T04:19:46.843Z,8576.00
2023-04-12T04:20:46.846Z,8555.00
2023-04-12T04:21:46.881Z,8570.00
2023-04-12T04:22:46.823Z,8536.00
2023-04-12T04:23:46.922Z,8579.00
2023-04-12T04:24:46.878Z,8584.00
2023-04-12T04:25:46.821Z,8609.00
2023-04-12T04:26:46.866Z,8638.00
2023-04-12T04:27:46.793Z,8949.00
2023-04-12T04:28:46.791Z,9313.00
2023-04-12T04:29:46.856Z,9187.00
2023-04-12T04:30:46.865Z,9274.00
2023-04-12T04:31:46.858Z,9141.00
2023-04-12T04:32:46.770Z,9029.00
2023-04-12T04:33:46.774Z,8940.00
2023-04-12T04:34:46.798Z,8924.00
2023-04-12T04:35:46.805Z,8950.00
2023-04-12T04:36:46.741Z,9020.00
2023-04-12T04:37:46.765Z,8980.00
2023-04-12T04:38:46.778Z,9030.00
2023-04-12T04:39:46.841Z,8994.00
2023-04-12T04:40:46.785Z,9014.00
2023-04-12T04:41:46.997Z,9111.00
2023-04-12T04:42:46.745Z,9031.00
2023-04-12T04:43:46.960Z,9071.00
2023-04-12T04:44:46.712Z,9108.00
2023-04-12T04:45:46.738Z,9146.00
2023-04-12T04:46:46.731Z,9272.00
2023-04-12T04:47:46.762Z,9277.00
2023-04-12T04:48:46.758Z,9131.00
2023-04-12T04:49:46.738Z,9067.00
2023-04-12T04:50:46.729Z,8966.00
2023-04-12T04:51:46.728Z,9049.00
2023-04-12T04:52:46.677Z,9202.00
2023-04-12T04:53:46.764Z,9148.00
2023-04-12T04:54:46.669Z,9072.00
2023-04-12T04:55:46.792Z,8982.00
2023-04-12T04:56:46.699Z,8984.00
2023-04-12T04:57:46.760Z,8991.00
2023-04-12T04:58:46.728Z,9024.00
2023-04-12T04:59:46.668Z,9045.00
2023-04-12T05:02:06.210Z,500.00
2023-04-12T05:03:06.284Z,500.00
2023-04-12T05:04:06.297Z,500.00
2023-04-12T05:05:06.152Z,500.00
2023-04-12T05:06:06.136Z,500.00
2023-04-12T05:07:06.147Z,517.00
2023-04-12T05:08:06.145Z,512.00
2023-04-12T05:09:06.168Z,500.00
2023-04-12T05:10:06.195Z,501.00
2023-04-12T05:11:06.176Z,520.00
2023-04-12T05:12:06.212Z,585.00
2023-04-12T05:13:06.300Z,563.00
2023-04-12T05:14:06.220Z,502.00
2023-04-12T05:15:11.603Z,440.00
2023-04-12T05:17:33.776Z,500.00
2023-04-12T05:18:26.096Z,500.00
2023-04-12T05:19:26.124Z,500.00
2023-04-12T05:20:26.119Z,500.00
2023-04-12T05:22:53.341Z,500.00
2023-04-12T05:23:45.750Z,500.00
2023-04-12T05:24:45.707Z,500.00
2023-04-12T05:25:45.717Z,500.00
2023-04-12T05:26:45.696Z,500.00
2023-04-12T05:27:45.718Z,500.00
2023-04-12T05:28:45.678Z,500.00
2023-04-12T05:29:45.689Z,500.00
2023-04-12T05:30:45.689Z,500.00
2023-04-12T05:31:45.660Z,500.00
2023-04-12T05:32:45.625Z,500.00
2023-04-12T05:33:46.392Z,500.00
2023-04-12T05:34:45.773Z,500.00
2023-04-12T05:35:45.647Z,500.00
2023-04-12T05:36:45.557Z,500.00
2023-04-12T05:37:45.586Z,500.00
2023-04-12T05:38:46.109Z,500.00
2023-04-12T05:39:45.598Z,500.00
2023-04-12T05:40:45.615Z,550.00
2023-04-12T05:41:46.565Z,553.00
2023-04-12T05:42:45.580Z,561.00
2023-04-12T05:43:46.320Z,582.00
2023-04-12T05:44:46.527Z,600.00
2023-04-12T05:47:13.138Z,500.00
2023-04-12T05:48:06.140Z,500.00
2023-04-12T05:49:05.846Z,500.00
2023-04-12T05:50:07.008Z,500.00
2023-04-12T05:51:06.302Z,500.00
2023-04-12T05:52:05.521Z,500.00
2023-04-12T05:53:05.431Z,500.00
2023-04-12T05:54:06.288Z,500.00
2023-04-12T05:55:05.540Z,500.00
2023-04-12T05:56:05.548Z,500.00
2023-04-12T05:57:05.409Z,500.00
2023-04-12T05:58:05.441Z,466.00
2023-04-12T05:59:05.410Z,492.00
2023-04-12T06:00:05.593Z,492.00
2023-04-12T06:01:05.490Z,479.00
2023-04-12T06:02:05.444Z,483.00
2023-04-12T06:03:05.542Z,458.00
2023-04-12T06:04:05.596Z,460.00
2023-04-12T06:05:05.646Z,504.00
2023-04-12T06:06:05.462Z,501.00
2023-04-12T06:07:05.380Z,502.00
2023-04-12T06:08:05.460Z,502.00
2023-04-12T06:09:05.370Z,431.00
2023-04-12T06:10:05.836Z,434.00
2023-04-12T06:11:06.302Z,400.00
2023-04-12T06:12:05.394Z,501.00
2023-04-12T06:13:05.396Z,518.00
2023-04-12T06:14:05.505Z,483.00
2023-04-12T06:15:06.318Z,535.00
2023-04-12T06:16:05.436Z,543.00
2023-04-12T06:17:05.408Z,584.00
2023-04-12T06:18:05.515Z,654.00
2023-04-12T06:19:06.640Z,754.00
2023-04-12T06:20:06.306Z,662.00
2023-04-12T06:21:05.455Z,614.00
2023-04-12T06:22:05.411Z,603.00
2023-04-12T06:23:05.463Z,615.00
2023-04-12T06:24:05.485Z,625.00
2023-04-12T06:25:05.982Z,695.00
2023-04-12T06:26:06.309Z,612.00
2023-04-12T06:27:05.392Z,573.00
2023-04-12T06:28:05.487Z,605.00
2023-04-12T06:29:05.457Z,585.00
2023-04-12T06:30:06.577Z,627.00
2023-04-12T06:31:05.481Z,621.00
2023-04-12T06:32:05.918Z,577.00
2023-04-12T06:33:05.421Z,517.00
2023-04-12T06:34:05.457Z,504.00
2023-04-12T06:35:05.297Z,512.00
2023-04-12T06:36:05.264Z,511.00
2023-04-12T06:37:06.308Z,536.00
2023-04-12T06:38:05.448Z,560.00
2023-04-12T06:39:05.718Z,562.00
2023-04-12T06:40:05.813Z,563.00
2023-04-12T06:41:05.611Z,563.00
2023-04-12T06:42:05.579Z,575.00
2023-04-12T06:43:05.540Z,563.00
2023-04-12T06:44:05.587Z,573.00
2023-04-12T06:45:05.703Z,588.00
2023-04-12T06:46:05.618Z,564.00
2023-04-12T06:47:05.737Z,574.00
2023-04-12T06:48:05.525Z,564.00
2023-04-12T06:49:05.654Z,565.00
2023-04-12T06:50:06.295Z,584.00
2023-04-12T06:51:05.548Z,635.00
2023-04-12T06:52:05.421Z,767.00
2023-04-12T06:53:05.498Z,967.00
2023-04-12T06:54:05.507Z,1127.00
2023-04-12T06:55:05.541Z,1130.00
2023-04-12T06:56:05.454Z,1110.00
2023-04-12T06:57:05.486Z,1097.00
2023-04-12T06:58:06.296Z,1019.00
2023-04-12T06:59:05.476Z,932.00
2023-04-12T07:00:05.937Z,970.00
2023-04-12T07:01:05.618Z,1097.00
2023-04-12T07:02:05.613Z,1076.00
2023-04-12T07:03:05.529Z,921.00
2023-04-12T07:04:05.659Z,796.00
2023-04-12T07:05:06.217Z,591.00
2023-04-12T07:06:17.282Z,400.00
2023-04-12T07:07:06.517Z,400.00
2023-04-12T07:08:05.586Z,400.00
2023-04-12T07:09:05.625Z,400.00
2023-04-12T07:10:05.620Z,400.00
2023-04-12T07:11:18.166Z,400.00
2023-04-12T07:12:06.504Z,400.00
2023-04-12T07:13:05.481Z,400.00
2023-04-12T07:14:05.480Z,400.00
2023-04-12T07:15:05.493Z,400.00
2023-04-12T07:16:05.583Z,400.00
2023-04-12T07:17:06.288Z,400.00
2023-04-12T07:18:05.461Z,400.00
2023-04-12T07:19:05.462Z,400.00
2023-04-12T07:20:05.465Z,400.00
2023-04-12T07:21:05.393Z,400.00
2023-04-12T07:22:05.415Z,400.00
2023-04-12T07:23:05.410Z,400.00
2023-04-12T07:24:05.492Z,400.00
2023-04-12T07:25:05.459Z,407.00
2023-04-12T07:26:05.500Z,454.00
2023-04-12T07:27:05.425Z,497.00
2023-04-12T07:28:07.005Z,533.00
2023-04-12T07:29:05.361Z,582.00
2023-04-12T07:30:06.705Z,639.00
2023-04-12T07:31:05.452Z,665.00
2023-04-12T07:32:05.719Z,667.00
2023-04-12T07:33:16.171Z,691.00
2023-04-12T07:34:06.438Z,666.00
2023-04-12T07:35:05.548Z,629.00
2023-04-12T07:36:05.292Z,600.00
2023-04-12T07:37:05.260Z,573.00
2023-04-12T07:38:05.250Z,400.00
2023-04-12T07:39:05.166Z,400.00
2023-04-12T07:40:05.421Z,445.00
2023-04-12T07:41:05.258Z,475.00
2023-04-12T07:42:05.377Z,422.00
2023-04-12T07:43:05.221Z,400.00
2023-04-12T07:44:05.837Z,400.00
2023-04-12T07:45:05.941Z,400.00
2023-04-12T07:46:05.466Z,400.00
2023-04-12T07:47:05.556Z,400.00
2023-04-12T07:48:05.595Z,400.00
2023-04-12T07:49:05.573Z,400.00
2023-04-12T07:50:05.745Z,400.00
2023-04-12T07:51:05.591Z,400.00
2023-04-12T07:52:05.508Z,400.00
2023-04-12T07:53:05.468Z,400.00
2023-04-12T07:54:05.502Z,400.00
2023-04-12T07:55:05.530Z,400.00
2023-04-12T07:56:05.515Z,400.00
2023-04-12T07:57:05.529Z,400.00
2023-04-12T07:58:05.423Z,400.00
2023-04-12T07:59:05.496Z,400.00
2023-04-12T08:00:05.508Z,400.00
2023-04-12T08:01:05.480Z,400.00
2023-04-12T08:02:05.634Z,400.00
2023-04-12T08:03:05.749Z,400.00
2023-04-12T08:04:05.657Z,400.00
2023-04-12T08:05:05.450Z,400.00
2023-04-12T08:06:06.328Z,400.00
2023-04-12T08:07:05.441Z,400.00
2023-04-12T08:08:06.265Z,400.00
2023-04-12T08:09:06.994Z,400.00
2023-04-12T08:10:06.296Z,400.00
2023-04-12T08:11:05.420Z,400.00
2023-04-12T08:12:05.479Z,400.00
2023-04-12T08:13:05.409Z,400.00
2023-04-12T08:14:05.473Z,400.00
2023-04-12T08:15:05.500Z,400.00
2023-04-12T08:16:05.502Z,400.00
2023-04-12T08:17:06.268Z,400.00
2023-04-12T08:18:05.375Z,400.00
2023-04-12T08:19:05.427Z,400.00
2023-04-12T08:20:05.313Z,400.00
2023-04-12T08:21:05.347Z,400.00
2023-04-12T08:22:05.562Z,400.00
2023-04-12T08:23:05.352Z,400.00
2023-04-12T08:24:05.521Z,400.00
2023-04-12T08:25:05.418Z,400.00
2023-04-12T08:26:05.352Z,400.00
2023-04-12T08:27:05.245Z,400.00
2023-04-12T08:28:05.468Z,400.00
2023-04-12T08:29:06.282Z,400.00
2023-04-12T08:30:05.544Z,400.00
2023-04-12T08:31:06.367Z,400.00
2023-04-12T08:32:05.381Z,400.00
2023-04-12T08:33:05.322Z,400.00
2023-04-12T08:34:05.536Z,400.00
2023-04-12T08:35:06.314Z,400.00
2023-04-12T08:36:05.271Z,400.00
2023-04-12T08:37:05.246Z,400.00
2023-04-12T08:38:05.229Z,400.00
2023-04-12T08:39:05.237Z,400.00
2023-04-12T08:40:05.377Z,400.00
2023-04-12T08:41:05.308Z,400.00
2023-04-12T08:42:05.364Z,400.00
2023-04-12T08:43:05.674Z,400.00
2023-04-12T08:44:05.342Z,400.00
2023-04-12T08:45:06.290Z,400.00
2023-04-12T08:46:05.394Z,400.00
2023-04-12T08:47:05.510Z,400.00
2023-04-12T08:48:06.307Z,400.00
2023-04-12T08:49:05.362Z,400.00
2023-04-12T08:50:05.517Z,400.00
2023-04-12T08:51:05.383Z,400.00
2023-04-12T08:52:05.357Z,400.00
2023-04-12T08:53:05.342Z,400.00
2023-04-12T08:54:05.264Z,400.00
2023-04-12T08:55:05.421Z,400.00
2023-04-12T08:56:05.315Z,400.00
2023-04-12T08:57:05.261Z,400.00
2023-04-12T08:58:05.227Z,400.00
2023-04-12T08:59:05.302Z,400.00
2023-04-12T09:00:05.309Z,400.00
2023-04-12T09:01:05.357Z,400.00
2023-04-12T09:02:05.457Z,400.00
2023-04-12T09:03:05.518Z,400.00
2023-04-12T09:04:05.526Z,400.00
2023-04-12T09:05:05.483Z,400.00
2023-04-12T09:06:05.729Z,400.00
2023-04-12T09:07:05.568Z,400.00
2023-04-12T09:08:05.464Z,400.00
2023-04-12T09:09:07.751Z,400.00
2023-04-12T09:10:05.470Z,400.00
2023-04-12T09:11:05.451Z,400.00
2023-04-12T09:12:05.462Z,400.00
2023-04-12T09:13:05.415Z,400.00
2023-04-12T09:14:05.541Z,400.00
2023-04-12T09:15:05.436Z,400.00
2023-04-12T09:16:06.005Z,400.00
2023-04-12T09:17:05.453Z,400.00
2023-04-12T09:18:05.581Z,400.00
2023-04-12T09:19:05.371Z,400.00
2023-04-12T09:20:05.377Z,400.00
2023-04-12T09:21:05.342Z,400.00
2023-04-12T09:22:05.738Z,400.00
2023-04-12T09:23:06.380Z,400.00
2023-04-12T09:24:06.325Z,400.00
2023-04-12T09:25:06.357Z,400.00
2023-04-12T09:26:05.442Z,400.00
2023-04-12T09:27:05.381Z,400.00
2023-04-12T09:28:05.428Z,400.00
2023-04-12T09:29:05.292Z,400.00
2023-04-12T09:30:06.302Z,400.00
2023-04-12T09:31:05.458Z,400.00
2023-04-12T09:32:05.521Z,400.00
2023-04-12T09:33:05.310Z,400.00
2023-04-12T09:34:05.268Z,400.00
2023-04-12T09:35:05.480Z,400.00
2023-04-12T09:36:05.405Z,400.00
2023-04-12T09:37:05.357Z,400.00
2023-04-12T09:38:05.282Z,400.00
2023-04-12T09:39:05.268Z,400.00
2023-04-12T09:40:05.612Z,400.00
2023-04-12T09:41:05.896Z,400.00
2023-04-12T09:42:10.497Z,400.00
2023-04-12T09:43:05.843Z,400.00
2023-04-12T09:44:05.665Z,400.00
2023-04-12T09:45:05.380Z,400.00
2023-04-12T09:46:05.528Z,400.00
2023-04-12T09:47:05.373Z,400.00
2023-04-12T09:48:05.373Z,400.00
2023-04-12T09:49:05.321Z,400.00
2023-04-12T09:50:05.849Z,400.00
2023-04-12T09:51:05.402Z,400.00
2023-04-12T09:52:05.303Z,400.00
2023-04-12T09:53:05.514Z,400.00
2023-04-12T09:54:05.290Z,400.00
2023-04-12T09:55:05.260Z,400.00
2023-04-12T09:56:05.278Z,400.00
2023-04-12T09:57:06.363Z,400.00
2023-04-12T09:58:05.573Z,400.00
2023-04-12T09:59:05.543Z,400.00
2023-04-12T10:00:05.505Z,400.00
2023-04-12T10:01:05.929Z,400.00
2023-04-12T10:02:05.674Z,400.00
2023-04-12T10:03:05.626Z,400.00
2023-04-12T10:04:05.637Z,400.00
2023-04-12T10:05:05.658Z,400.00
2023-04-12T10:06:06.382Z,400.00
2023-04-12T10:07:06.132Z,400.00
2023-04-12T10:08:05.345Z,400.00
2023-04-12T10:09:05.400Z,400.00
2023-04-12T10:10:05.347Z,400.00
2023-04-12T10:11:05.320Z,400.00
2023-04-12T10:12:05.341Z,400.00
2023-04-12T10:13:05.465Z,400.00
2023-04-12T10:14:05.975Z,400.00
2023-04-12T10:15:05.370Z,400.00
2023-04-12T10:16:05.586Z,400.00
2023-04-12T10:17:05.347Z,400.00
2023-04-12T10:18:05.373Z,400.00
2023-04-12T10:19:05.219Z,400.00
2023-04-12T10:20:05.241Z,400.00
2023-04-12T10:21:05.321Z,400.00
2023-04-12T10:22:05.254Z,400.00
2023-04-12T10:23:05.184Z,400.00
2023-04-12T10:24:05.220Z,400.00
2023-04-12T10:25:05.246Z,400.00
2023-04-12T10:26:05.372Z,400.00
2023-04-12T10:27:05.330Z,400.00
2023-04-12T10:28:05.456Z,400.00
2023-04-12T10:29:05.474Z,400.00
2023-04-12T10:30:05.247Z,400.00
2023-04-12T10:31:05.450Z,400.00
2023-04-12T10:32:05.375Z,400.00
2023-04-12T10:33:05.623Z,400.00
2023-04-12T10:34:06.045Z,400.00
2023-04-12T10:35:05.457Z,400.00
2023-04-12T10:36:06.970Z,400.00
2023-04-12T10:37:06.375Z,400.00
2023-04-12T10:38:05.558Z,400.00
2023-04-12T10:39:05.689Z,400.00
2023-04-12T10:40:06.680Z,400.00
2023-04-12T10:41:05.928Z,400.00
2023-04-12T10:42:05.546Z,400.00
2023-04-12T10:43:05.645Z,400.00
2023-04-12T10:44:06.512Z,400.00
2023-04-12T10:45:05.536Z,400.00
2023-04-12T10:46:06.009Z,400.00
2023-04-12T10:47:05.584Z,400.00
2023-04-12T10:48:05.618Z,400.00
2023-04-12T10:49:05.933Z,400.00
2023-04-12T10:50:05.482Z,400.00
2023-04-12T10:51:05.429Z,400.00
2023-04-12T10:52:06.536Z,400.00
2023-04-12T10:53:05.642Z,400.00
2023-04-12T10:54:05.472Z,400.00
2023-04-12T10:55:05.655Z,400.00
2023-04-12T10:56:05.546Z,400.00
2023-04-12T10:57:05.621Z,400.00
2023-04-12T10:58:06.339Z,400.00
2023-04-12T10:59:05.730Z,400.00
2023-04-12T11:00:05.752Z,400.00
2023-04-12T11:01:05.661Z,400.00
2023-04-12T11:02:05.680Z,400.00
2023-04-12T11:03:05.948Z,400.00
2023-04-12T11:04:05.920Z,400.00
2023-04-12T11:05:05.686Z,400.00
2023-04-12T11:06:20.064Z,400.00
2023-04-12T11:07:06.810Z,400.00
2023-04-12T11:08:06.535Z,400.00
2023-04-12T11:09:06.311Z,400.00
2023-04-12T11:10:05.531Z,400.00
2023-04-12T11:11:05.943Z,400.00
2023-04-12T11:12:05.739Z,400.00
2023-04-12T11:13:05.571Z,400.00
2023-04-12T11:14:05.525Z,400.00
2023-04-12T11:15:06.379Z,400.00
2023-04-12T11:16:06.006Z,400.00
2023-04-12T11:17:06.341Z,400.00
2023-04-12T11:18:05.455Z,400.00
2023-04-12T11:19:05.459Z,400.00
2023-04-12T11:20:05.593Z,400.00
2023-04-12T11:21:05.442Z,400.00
2023-04-12T11:22:05.466Z,400.00
2023-04-12T11:23:05.616Z,400.00
2023-04-12T11:24:06.275Z,400.00
2023-04-12T11:25:05.542Z,400.00
2023-04-12T11:26:05.872Z,400.00
2023-04-12T11:27:05.421Z,400.00
2023-04-12T11:28:13.870Z,400.00
2023-04-12T11:29:06.466Z,400.00
2023-04-12T11:30:05.565Z,400.00
2023-04-12T11:31:06.180Z,400.00
2023-04-12T11:32:06.216Z,400.00
2023-04-12T11:33:06.616Z,400.00
2023-04-12T11:34:08.392Z,400.00
2023-04-12T11:35:05.777Z,400.00
2023-04-12T11:36:07.432Z,400.00
2023-04-12T11:37:06.778Z,400.00
2023-04-12T11:38:05.863Z,400.00
2023-04-12T11:39:05.810Z,400.00
2023-04-12T11:40:05.716Z,400.00
2023-04-12T11:41:05.726Z,400.00
2023-04-12T11:42:05.899Z,400.00
2023-04-12T11:43:05.735Z,400.00
2023-04-12T11:44:05.785Z,598.00
2023-04-12T11:45:12.701Z,617.00
2023-04-12T11:46:07.193Z,627.00
2023-04-12T11:47:05.610Z,727.00
2023-04-12T11:48:05.724Z,400.00
2023-04-12T11:49:05.849Z,400.00
2023-04-12T11:50:05.689Z,400.00
2023-04-12T11:51:11.430Z,400.00
2023-04-12T11:52:06.733Z,400.00
2023-04-12T11:53:05.757Z,400.00
2023-04-12T11:54:05.671Z,400.00
2023-04-12T11:55:05.735Z,400.00
2023-04-12T11:56:05.618Z,400.00
2023-04-12T11:57:05.858Z,400.00
2023-04-12T11:58:05.703Z,400.00
2023-04-12T11:59:05.590Z,400.00
2023-04-12T12:00:05.697Z,400.00
2023-04-12T12:01:05.657Z,400.00
2023-04-12T12:02:20.982Z,400.00
2023-04-12T12:03:08.780Z,400.00
2023-04-12T12:04:06.032Z,400.00
2023-04-12T12:05:05.661Z,400.00
2023-04-12T12:06:06.123Z,400.00
2023-04-12T12:07:06.307Z,400.00
2023-04-12T12:08:05.548Z,400.00
2023-04-12T12:09:05.626Z,400.00
2023-04-12T12:10:05.551Z,524.00
2023-04-12T12:11:08.432Z,400.00
2023-04-12T12:12:05.999Z,400.00
2023-04-12T12:13:05.595Z,400.00
2023-04-12T12:14:05.594Z,400.00
2023-04-12T12:15:05.503Z,400.00
2023-04-12T12:16:05.552Z,400.00
2023-04-12T12:17:06.001Z,400.00
2023-04-12T12:18:06.248Z,400.00
2023-04-12T12:19:05.538Z,400.00
2023-04-12T12:20:05.511Z,400.00
2023-04-12T12:21:05.473Z,400.00
2023-04-12T12:22:05.620Z,483.00
2023-04-12T12:23:05.453Z,400.00
2023-04-12T12:24:05.457Z,400.00